Time;durP1;ratioP1;P1;durP2;ratioP2;P2;SDS_P1;SDS_P2;PMS_P1;PMS_P2;Temp;Humidity;BMP_temperature;BMP_pressure;BME280_temperature;BME280_humidity;BME280_pressure;Samples;Min_cycle;Max_cycle;Signal;HPM_P1;HPM_P2
2022/12/30 00:01:13;;;;;;;6.87;3.13;;;;;;;;;;4954178;28;20221;-65
2022/12/30 00:03:39;;;;;;;7.47;3.27;;;;;;;;;;4935677;29;20183;-64
2022/12/30 00:06:07;;;;;;;5.63;3.23;;;;;;;;;;4935877;29;20195;-64
2022/12/30 00:08:46;;;;;;;9.50;3.70;;;;;;;;;;4935447;29;20207;-64
2022/12/30 00:11:32;;;;;;;6.83;3.60;;;;;;;;;;4935583;29;20530;-64
2022/12/30 00:33:46;;;;;;;7.10;4.20;;;;;;;;;;4953244;28;20248;-64
2022/12/30 00:36:13;;;;;;;6.47;4.00;;;;;;;;;;4954457;29;20628;-64
2022/12/30 00:38:39;;;;;;;7.57;4.40;;;;;;;;;;4954162;29;20210;-64
2022/12/30 00:43:51;;;;;;;10.07;4.17;;;;;;;;;;4953243;28;20217;-64
2022/12/30 00:46:18;;;;;;;10.33;4.07;;;;;;;;;;4953912;29;20237;-64
2022/12/30 00:57:19;;;;;;;4.57;3.00;;;;;;;;;;4953949;29;20186;-64
2022/12/30 00:59:45;;;;;;;7.47;3.17;;;;;;;;;;4953810;29;20535;-64
2022/12/30 01:02:12;;;;;;;6.30;2.90;;;;;;;;;;4951187;29;20194;-64
2022/12/30 01:04:39;;;;;;;5.93;2.80;;;;;;;;;;4934600;29;20191;-64
2022/12/30 01:07:06;;;;;;;4.97;2.87;;;;;;;;;;4933690;29;20277;-64
2022/12/30 01:09:35;;;;;;;6.87;3.00;;;;;;;;;;4934211;29;20221;-64
2022/12/30 01:12:08;;;;;;;6.13;3.23;;;;;;;;;;4934701;29;20195;-64
2022/12/30 01:14:35;;;;;;;5.10;2.80;;;;;;;;;;4934235;29;20187;-64
2022/12/30 01:17:02;;;;;;;4.93;2.70;;;;;;;;;;4934227;29;20292;-64
2022/12/30 01:19:29;;;;;;;5.60;2.50;;;;;;;;;;4934096;29;20282;-64
2022/12/30 01:21:55;;;;;;;6.13;2.40;;;;;;;;;;4934105;29;20194;-64
2022/12/30 01:24:22;;;;;;;5.67;2.93;;;;;;;;;;4933988;29;20186;-65
2022/12/30 01:26:49;;;;;;;6.10;2.57;;;;;;;;;;4941646;28;20226;-64
2022/12/30 01:29:20;;;;;;;4.00;2.47;;;;;;;;;;4953247;28;20201;-64
2022/12/30 01:31:47;;;;;;;5.10;2.70;;;;;;;;;;4953298;29;20194;-64
2022/12/30 01:34:13;;;;;;;4.87;2.40;;;;;;;;;;4953143;28;20221;-64
2022/12/30 01:36:40;;;;;;;4.20;2.50;;;;;;;;;;4952978;29;20241;-64
2022/12/30 01:39:07;;;;;;;4.93;2.40;;;;;;;;;;4953100;29;20194;-64
2022/12/30 01:41:33;;;;;;;6.27;2.70;;;;;;;;;;4952798;29;20208;-64
2022/12/30 02:16:18;;;;;;;4.93;2.53;;;;;;;;;;4932931;29;20577;-64
2022/12/30 02:19:14;;;;;;;7.03;2.30;;;;;;;;;;4932285;29;20878;-64
2022/12/30 02:22:04;;;;;;;5.83;3.00;;;;;;;;;;4881810;29;20616;-64
2022/12/30 02:25:03;;;;;;;5.47;2.60;;;;;;;;;;4912648;29;20709;-64
2022/12/30 02:27:30;;;;;;;5.77;2.70;;;;;;;;;;4931844;29;20190;-64
2022/12/30 02:30:03;;;;;;;6.20;2.63;;;;;;;;;;4933307;29;20191;-64
2022/12/30 02:32:36;;;;;;;5.00;2.90;;;;;;;;;;4932727;29;20554;-65
2022/12/30 02:35:15;;;;;;;6.03;2.87;;;;;;;;;;4933083;29;20708;-64
2022/12/30 02:37:51;;;;;;;4.40;2.53;;;;;;;;;;4932737;29;20293;-64
2022/12/30 02:40:25;;;;;;;6.80;2.57;;;;;;;;;;4932879;29;20273;-64
2022/12/30 02:45:55;;;;;;;3.70;2.27;;;;;;;;;;4932687;29;20258;-64
2022/12/30 02:48:22;;;;;;;6.03;2.30;;;;;;;;;;4931588;29;20219;-64
2022/12/30 02:53:35;;;;;;;3.27;1.93;;;;;;;;;;4941599;29;20190;-64
2022/12/30 02:56:19;;;;;;;6.70;2.23;;;;;;;;;;4936941;29;20201;-64
2022/12/30 02:58:50;;;;;;;4.17;1.80;;;;;;;;;;4946614;28;20574;-64
2022/12/30 03:04:10;;;;;;;7.37;2.37;;;;;;;;;;4932433;29;20221;-64
2022/12/30 03:06:55;;;;;;;3.93;1.97;;;;;;;;;;4932415;29;20658;-64
2022/12/30 03:09:25;;;;;;;4.60;2.20;;;;;;;;;;4932177;29;20191;-64
2022/12/30 03:12:10;;;;;;;6.67;2.00;;;;;;;;;;4932607;29;20205;-64
2022/12/30 03:14:45;;;;;;;5.80;2.10;;;;;;;;;;4932568;29;20241;-64
2022/12/30 03:17:26;;;;;;;6.00;2.40;;;;;;;;;;4930776;29;20224;-64
2022/12/30 03:19:54;;;;;;;8.90;2.30;;;;;;;;;;4931265;29;20257;-64
2022/12/30 03:27:52;;;;;;;5.30;1.90;;;;;;;;;;4931383;29;20191;-64
2022/12/30 03:30:19;;;;;;;3.57;1.80;;;;;;;;;;4932532;29;20187;-64
2022/12/30 03:32:48;;;;;;;4.07;2.10;;;;;;;;;;4934239;29;20559;-64
2022/12/30 03:35:15;;;;;;;2.73;1.70;;;;;;;;;;4935955;28;20225;-64
2022/12/30 03:37:47;;;;;;;5.07;1.80;;;;;;;;;;4936261;29;20215;-64
2022/12/30 03:40:15;;;;;;;2.07;1.30;;;;;;;;;;4934640;29;20191;-64
2022/12/30 03:42:42;;;;;;;2.13;1.13;;;;;;;;;;4934833;29;20258;-64
2022/12/30 03:45:09;;;;;;;3.97;2.03;;;;;;;;;;4936093;29;20191;-64
2022/12/30 03:47:36;;;;;;;3.63;1.43;;;;;;;;;;4934698;29;20245;-64
2022/12/30 03:50:03;;;;;;;2.50;1.37;;;;;;;;;;4935810;29;20265;-64
2022/12/30 03:52:29;;;;;;;4.03;1.33;;;;;;;;;;4937079;29;20278;-64
2022/12/30 03:54:56;;;;;;;1.10;0.83;;;;;;;;;;4953836;28;20861;-64
2022/12/30 03:57:23;;;;;;;2.60;1.10;;;;;;;;;;4954694;28;20210;-65
2022/12/30 03:59:49;;;;;;;1.23;1.00;;;;;;;;;;4955257;29;20531;-64
2022/12/30 04:02:16;;;;;;;2.60;1.50;;;;;;;;;;4954709;29;20186;-64
2022/12/30 04:04:43;;;;;;;4.73;1.40;;;;;;;;;;4954853;29;20198;-64
2022/12/30 04:07:09;;;;;;;3.73;1.27;;;;;;;;;;4953283;28;20645;-64
2022/12/30 04:09:36;;;;;;;2.10;1.43;;;;;;;;;;4954406;28;20190;-64
2022/12/30 04:12:03;;;;;;;2.83;1.17;;;;;;;;;;4953841;29;20202;-65
2022/12/30 04:14:30;;;;;;;5.17;1.57;;;;;;;;;;4955501;28;20715;-64
2022/12/30 04:16:56;;;;;;;3.50;1.50;;;;;;;;;;4954213;28;20265;-64
2022/12/30 04:19:40;;;;;;;2.20;1.20;;;;;;;;;;4953728;29;20171;-64
2022/12/30 04:22:07;;;;;;;3.57;1.67;;;;;;;;;;4953494;29;20212;-64
2022/12/30 04:24:51;;;;;;;3.37;1.53;;;;;;;;;;4953021;29;20170;-65
2022/12/30 04:27:23;;;;;;;2.90;1.10;;;;;;;;;;4939283;28;20844;-64
2022/12/30 04:29:50;;;;;;;2.63;1.67;;;;;;;;;;4940112;28;20194;-64
2022/12/30 04:32:16;;;;;;;3.63;1.23;;;;;;;;;;4953361;28;20221;-63
2022/12/30 04:34:43;;;;;;;3.37;1.57;;;;;;;;;;4953637;28;20190;-64
2022/12/30 04:37:10;;;;;;;9.53;1.30;;;;;;;;;;4952977;28;20225;-64
2022/12/30 04:39:36;;;;;;;2.80;0.80;;;;;;;;;;4953053;28;20191;-64
2022/12/30 04:42:03;;;;;;;1.83;1.27;;;;;;;;;;4952228;28;20225;-64
2022/12/30 04:44:30;;;;;;;3.23;1.17;;;;;;;;;;4953216;29;20192;-64
2022/12/30 04:46:56;;;;;;;2.00;1.27;;;;;;;;;;4953241;29;20206;-64
2022/12/30 04:49:23;;;;;;;2.57;1.20;;;;;;;;;;4953236;28;20193;-64
2022/12/30 04:51:51;;;;;;;3.33;1.23;;;;;;;;;;4945209;28;20195;-64
2022/12/30 04:54:17;;;;;;;2.50;1.30;;;;;;;;;;4953607;29;20277;-66
2022/12/30 04:56:44;;;;;;;2.80;1.90;;;;;;;;;;4953068;29;20330;-64
2022/12/30 04:59:28;;;;;;;3.30;1.90;;;;;;;;;;4951970;28;20178;-64
2022/12/30 05:01:55;;;;;;;4.40;1.50;;;;;;;;;;4953028;29;20209;-64
2022/12/30 05:04:22;;;;;;;3.47;1.80;;;;;;;;;;4951968;28;20253;-64
2022/12/30 05:06:48;;;;;;;5.27;1.60;;;;;;;;;;4943820;29;20190;-64
2022/12/30 05:09:15;;;;;;;2.23;1.60;;;;;;;;;;4940504;28;20661;-64
2022/12/30 05:11:42;;;;;;;3.07;1.73;;;;;;;;;;4951591;28;20233;-64
2022/12/30 05:14:08;;;;;;;2.17;1.90;;;;;;;;;;4943308;28;20225;-67
2022/12/30 05:16:35;;;;;;;3.30;1.77;;;;;;;;;;4937396;28;20295;-67
2022/12/30 05:19:02;;;;;;;3.70;1.87;;;;;;;;;;4948865;28;20233;-65
2022/12/30 05:21:29;;;;;;;3.27;2.00;;;;;;;;;;4950268;28;20187;-67
2022/12/30 05:26:41;;;;;;;4.60;1.67;;;;;;;;;;4948909;28;20276;-65
2022/12/30 05:29:08;;;;;;;2.63;1.63;;;;;;;;;;4949775;28;20194;-66
2022/12/30 05:35:35;;;;;;;2.83;1.23;;;;;;;;;;4937776;28;20189;-65
2022/12/30 05:38:01;;;;;;;1.50;0.97;;;;;;;;;;4949489;29;20285;-64
2022/12/30 05:40:28;;;;;;;2.03;1.07;;;;;;;;;;4948629;28;20199;-64
2022/12/30 05:42:55;;;;;;;5.30;1.53;;;;;;;;;;4948141;28;20200;-63
2022/12/30 05:45:21;;;;;;;2.47;1.40;;;;;;;;;;4947580;28;20531;-65
2022/12/30 05:47:48;;;;;;;2.07;1.17;;;;;;;;;;4950145;29;20178;-62
2022/12/30 05:50:15;;;;;;;1.07;0.77;;;;;;;;;;4947483;28;20198;-63
2022/12/30 05:52:41;;;;;;;2.20;1.20;;;;;;;;;;4948865;28;20278;-64
2022/12/30 05:55:08;;;;;;;4.13;1.20;;;;;;;;;;4948861;28;20209;-65
2022/12/30 05:57:35;;;;;;;2.40;0.87;;;;;;;;;;4952253;28;20218;-64
2022/12/30 06:00:06;;;;;;;5.03;1.40;;;;;;;;;;4948915;28;20673;-64
2022/12/30 06:02:33;;;;;;;4.60;1.90;;;;;;;;;;4966513;28;20216;-64
2022/12/30 06:05:06;;;;;;;4.97;1.93;;;;;;;;;;4938934;29;20190;-63
2022/12/30 06:07:33;;;;;;;3.93;1.33;;;;;;;;;;4947626;28;20187;-63
2022/12/30 06:10:00;;;;;;;3.57;1.90;;;;;;;;;;4948412;28;20657;-64
2022/12/30 06:12:26;;;;;;;2.43;1.37;;;;;;;;;;4948311;28;20222;-66
2022/12/30 06:14:53;;;;;;;4.43;1.80;;;;;;;;;;4947629;28;20623;-65
2022/12/30 06:17:20;;;;;;;4.03;1.60;;;;;;;;;;4942130;28;20696;-66
2022/12/30 06:19:47;;;;;;;2.40;1.10;;;;;;;;;;4947959;28;20194;-63
2022/12/30 06:22:13;;;;;;;3.53;1.50;;;;;;;;;;4948780;28;20198;-62
2022/12/30 06:24:47;;;;;;;3.73;1.60;;;;;;;;;;4947095;29;20206;-65
2022/12/30 06:27:14;;;;;;;5.00;1.83;;;;;;;;;;4949674;28;20286;-67
2022/12/30 06:29:41;;;;;;;4.23;1.60;;;;;;;;;;4912367;29;20662;-68
2022/12/30 06:32:08;;;;;;;6.37;1.57;;;;;;;;;;4944874;29;20198;-66
2022/12/30 06:34:34;;;;;;;2.17;1.37;;;;;;;;;;4944577;28;20221;-65
2022/12/30 06:37:01;;;;;;;6.27;1.57;;;;;;;;;;4953253;28;20214;-64
2022/12/30 06:39:28;;;;;;;3.87;1.80;;;;;;;;;;4950787;28;20283;-65
2022/12/30 06:41:54;;;;;;;4.13;1.90;;;;;;;;;;4948511;28;20531;-64
2022/12/30 06:44:21;;;;;;;6.27;2.20;;;;;;;;;;4953586;28;20288;-63
2022/12/30 06:46:48;;;;;;;5.50;2.10;;;;;;;;;;4953481;28;20553;-64
2022/12/30 06:49:14;;;;;;;4.53;1.80;;;;;;;;;;4952462;28;20190;-65
2022/12/30 06:51:41;;;;;;;5.20;2.20;;;;;;;;;;4950633;28;20185;-67
2022/12/30 06:54:08;;;;;;;6.87;1.97;;;;;;;;;;4948807;28;20569;-65
2022/12/30 06:56:34;;;;;;;2.90;1.57;;;;;;;;;;4949105;29;20618;-63
2022/12/30 06:59:01;;;;;;;2.40;1.50;;;;;;;;;;4952769;28;20202;-66
2022/12/30 07:01:28;;;;;;;7.47;2.10;;;;;;;;;;4932520;29;20550;-66
2022/12/30 07:03:55;;;;;;;4.27;2.10;;;;;;;;;;4948654;28;20705;-65
2022/12/30 07:06:22;;;;;;;5.00;2.17;;;;;;;;;;4961611;28;20193;-67
2022/12/30 07:08:48;;;;;;;7.07;2.40;;;;;;;;;;4948406;28;20207;-65
2022/12/30 07:11:15;;;;;;;6.07;1.77;;;;;;;;;;4943873;28;20202;-63
2022/12/30 07:13:42;;;;;;;4.70;1.97;;;;;;;;;;4930414;29;20200;-63
2022/12/30 07:16:09;;;;;;;5.67;1.97;;;;;;;;;;4946977;28;20697;-63
2022/12/30 07:18:35;;;;;;;6.73;1.97;;;;;;;;;;4919264;29;20872;-62
2022/12/30 07:21:02;;;;;;;3.53;1.73;;;;;;;;;;4948154;28;20225;-63
2022/12/30 07:23:29;;;;;;;6.37;2.17;;;;;;;;;;4938696;28;20190;-63
2022/12/30 07:25:56;;;;;;;8.30;2.20;;;;;;;;;;4945228;28;20225;-63
2022/12/30 07:28:22;;;;;;;5.40;1.77;;;;;;;;;;4952904;28;20245;-63
2022/12/30 07:30:49;;;;;;;6.80;1.90;;;;;;;;;;4947958;28;20602;-63
2022/12/30 07:33:16;;;;;;;5.07;2.33;;;;;;;;;;4948425;28;20855;-63
2022/12/30 07:35:42;;;;;;;4.03;1.87;;;;;;;;;;4945615;28;20202;-68
2022/12/30 07:38:09;;;;;;;5.83;2.00;;;;;;;;;;4928792;28;20629;-63
2022/12/30 07:40:36;;;;;;;6.67;1.83;;;;;;;;;;4946625;28;20270;-64
2022/12/30 07:43:03;;;;;;;4.33;1.27;;;;;;;;;;4946176;28;20249;-64
2022/12/30 07:45:30;;;;;;;3.03;1.63;;;;;;;;;;4946891;28;20193;-64
2022/12/30 07:48:00;;;;;;;5.03;1.40;;;;;;;;;;4929632;28;20194;-63
2022/12/30 07:50:26;;;;;;;6.23;2.03;;;;;;;;;;4946952;28;20296;-63
2022/12/30 07:52:53;;;;;;;3.60;1.60;;;;;;;;;;4947224;28;20260;-64
2022/12/30 07:55:21;;;;;;;7.47;1.87;;;;;;;;;;4945395;28;20194;-63
2022/12/30 07:57:48;;;;;;;6.37;1.47;;;;;;;;;;4947677;28;20222;-63
2022/12/30 08:00:15;;;;;;;3.77;1.33;;;;;;;;;;4946308;28;20669;-66
2022/12/30 08:02:48;;;;;;;7.63;2.20;;;;;;;;;;4948831;28;20197;-64
2022/12/30 08:05:15;;;;;;;5.03;1.93;;;;;;;;;;4944818;28;20613;-65
2022/12/30 08:07:42;;;;;;;4.87;2.33;;;;;;;;;;4957586;28;20281;-64
2022/12/30 08:10:09;;;;;;;6.20;2.10;;;;;;;;;;4945619;28;20198;-66
2022/12/30 08:12:36;;;;;;;4.67;1.60;;;;;;;;;;4946777;28;20198;-65
2022/12/30 08:15:03;;;;;;;5.00;2.03;;;;;;;;;;4947022;28;20249;-66
2022/12/30 08:17:30;;;;;;;5.80;2.03;;;;;;;;;;4950374;28;20241;-64
2022/12/30 08:19:56;;;;;;;9.03;2.40;;;;;;;;;;4943936;28;20238;-64
2022/12/30 08:22:23;;;;;;;7.17;2.50;;;;;;;;;;4950430;29;20202;-64
2022/12/30 08:24:50;;;;;;;5.20;1.93;;;;;;;;;;4949762;28;20209;-66
2022/12/30 08:27:16;;;;;;;8.00;2.30;;;;;;;;;;4952855;28;20220;-63
2022/12/30 08:29:43;;;;;;;6.53;2.10;;;;;;;;;;4949005;28;20302;-63
2022/12/30 08:32:10;;;;;;;6.53;1.70;;;;;;;;;;4951052;28;20208;-64
2022/12/30 08:34:36;;;;;;;5.27;1.63;;;;;;;;;;4950925;28;20186;-64
2022/12/30 08:37:03;;;;;;;6.27;2.07;;;;;;;;;;4951190;28;20213;-64
2022/12/30 08:39:30;;;;;;;6.23;2.20;;;;;;;;;;4950882;28;20200;-65
2022/12/30 08:41:57;;;;;;;3.87;1.40;;;;;;;;;;4953919;28;20541;-65
2022/12/30 08:44:24;;;;;;;7.40;2.03;;;;;;;;;;4945252;28;20206;-66
2022/12/30 08:46:51;;;;;;;9.70;2.37;;;;;;;;;;4950777;28;20198;-65
2022/12/30 08:49:18;;;;;;;7.10;2.10;;;;;;;;;;4949250;28;20185;-64
2022/12/30 08:51:45;;;;;;;8.70;2.60;;;;;;;;;;4956017;28;20194;-66
2022/12/30 08:54:11;;;;;;;3.43;1.77;;;;;;;;;;4950581;28;20557;-65
2022/12/30 08:56:39;;;;;;;8.33;2.23;;;;;;;;;;4954608;28;21184;-64
2022/12/30 08:59:08;;;;;;;7.90;2.27;;;;;;;;;;4933056;28;20222;-63
2022/12/30 09:01:41;;;;;;;8.20;2.50;;;;;;;;;;4928186;29;20225;-66
2022/12/30 09:04:09;;;;;;;4.93;2.37;;;;;;;;;;4950046;28;20277;-67
2022/12/30 09:06:36;;;;;;;6.37;2.30;;;;;;;;;;4948347;28;20747;-66
2022/12/30 09:09:03;;;;;;;6.57;2.80;;;;;;;;;;4949960;28;20566;-65
2022/12/30 09:11:31;;;;;;;4.10;1.80;;;;;;;;;;4950682;28;20200;-64
2022/12/30 09:13:59;;;;;;;4.53;2.23;;;;;;;;;;4951288;28;20191;-64
2022/12/30 09:16:26;;;;;;;8.30;2.53;;;;;;;;;;4947269;28;20197;-66
2022/12/30 09:18:53;;;;;;;5.67;1.97;;;;;;;;;;4938867;28;20237;-67
2022/12/30 09:21:20;;;;;;;9.67;2.43;;;;;;;;;;4949792;28;20201;-66
2022/12/30 09:23:47;;;;;;;7.23;2.60;;;;;;;;;;4948952;28;20194;-66
2022/12/30 09:26:15;;;;;;;6.40;2.07;;;;;;;;;;4951076;28;20226;-64
2022/12/30 09:28:42;;;;;;;5.10;2.13;;;;;;;;;;4950696;28;20225;-65
2022/12/30 09:31:09;;;;;;;8.10;2.50;;;;;;;;;;4950730;28;20225;-64
2022/12/30 09:33:37;;;;;;;6.50;2.90;;;;;;;;;;4948577;29;20661;-64
2022/12/30 09:36:04;;;;;;;7.53;1.87;;;;;;;;;;4946528;28;20831;-66
2022/12/30 09:38:31;;;;;;;3.87;1.50;;;;;;;;;;4948254;29;20222;-66
2022/12/30 09:41:02;;;;;;;5.00;1.80;;;;;;;;;;4935120;29;20190;-67
2022/12/30 09:43:36;;;;;;;6.43;2.07;;;;;;;;;;4935924;28;20204;-67
2022/12/30 09:46:26;;;;;;;4.70;2.23;;;;;;;;;;4917241;28;20175;-67
2022/12/30 09:48:57;;;;;;;11.57;2.43;;;;;;;;;;4939496;28;20244;-67
2022/12/30 09:51:26;;;;;;;6.70;2.53;;;;;;;;;;4920153;29;20197;-67
2022/12/30 09:53:53;;;;;;;7.07;2.73;;;;;;;;;;4935936;28;20200;-67
2022/12/30 09:56:28;;;;;;;4.33;1.87;;;;;;;;;;4935348;29;20194;-67
2022/12/30 09:58:56;;;;;;;6.23;2.40;;;;;;;;;;4931530;28;20569;-65
2022/12/30 10:01:28;;;;;;;6.30;1.97;;;;;;;;;;4916283;29;20194;-64
2022/12/30 10:03:56;;;;;;;4.37;1.83;;;;;;;;;;4927469;29;20191;-64
2022/12/30 10:06:28;;;;;;;10.53;2.07;;;;;;;;;;4931949;29;20201;-64
2022/12/30 10:09:04;;;;;;;7.13;2.23;;;;;;;;;;4948601;29;20198;-65
2022/12/30 10:11:46;;;;;;;3.10;1.90;;;;;;;;;;4942320;28;20230;-64
2022/12/30 10:14:16;;;;;;;7.60;2.13;;;;;;;;;;4948623;29;20200;-64
2022/12/30 10:16:46;;;;;;;5.60;1.80;;;;;;;;;;4941766;28;20211;-65
2022/12/30 10:19:23;;;;;;;10.60;2.57;;;;;;;;;;4940313;28;20245;-66
2022/12/30 10:22:10;;;;;;;12.27;2.73;;;;;;;;;;4947270;28;20300;-67
2022/12/30 10:24:43;;;;;;;6.27;1.60;;;;;;;;;;4926175;29;20226;-67
2022/12/30 10:27:18;;;;;;;6.27;1.50;;;;;;;;;;4956092;28;20933;-68
2022/12/30 10:29:45;;;;;;;9.37;2.13;;;;;;;;;;4930161;28;20201;-66
2022/12/30 10:32:14;;;;;;;5.10;1.67;;;;;;;;;;4930903;29;20221;-65
2022/12/30 10:34:41;;;;;;;5.70;1.93;;;;;;;;;;4917679;28;20197;-67
2022/12/30 10:37:11;;;;;;;7.77;2.23;;;;;;;;;;4945761;28;20557;-67
2022/12/30 10:39:41;;;;;;;7.57;2.47;;;;;;;;;;4933271;28;21008;-65
2022/12/30 10:42:14;;;;;;;6.43;2.10;;;;;;;;;;4934531;29;20199;-65
2022/12/30 10:44:51;;;;;;;5.37;1.90;;;;;;;;;;4948846;28;20624;-64
2022/12/30 10:47:23;;;;;;;4.00;1.60;;;;;;;;;;4949644;28;20209;-61
2022/12/30 10:50:09;;;;;;;5.60;1.80;;;;;;;;;;4952070;28;20202;-61
2022/12/30 10:52:36;;;;;;;9.97;1.73;;;;;;;;;;4951683;29;20190;-62
2022/12/30 10:55:13;;;;;;;6.07;1.70;;;;;;;;;;4942638;28;20658;-61
2022/12/30 10:57:40;;;;;;;4.00;1.20;;;;;;;;;;4930833;29;20285;-61
2022/12/30 11:00:24;;;;;;;6.77;2.20;;;;;;;;;;4942557;28;20179;-62
2022/12/30 11:02:53;;;;;;;9.13;2.03;;;;;;;;;;4931710;29;20186;-64
2022/12/30 11:05:27;;;;;;;10.93;2.03;;;;;;;;;;4948965;28;20236;-63
2022/12/30 11:07:59;;;;;;;7.10;2.07;;;;;;;;;;4948921;29;20265;-62
2022/12/30 11:10:26;;;;;;;7.60;1.90;;;;;;;;;;4948331;28;20200;-63
2022/12/30 11:15:52;;;;;;;12.83;1.97;;;;;;;;;;4937955;28;20188;-63
2022/12/30 11:18:19;;;;;;;7.70;1.70;;;;;;;;;;4947946;28;20933;-63
2022/12/30 11:20:46;;;;;;;9.13;1.60;;;;;;;;;;4949057;29;20195;-63
2022/12/30 11:23:32;;;;;;;4.83;1.50;;;;;;;;;;4934373;28;20700;-62
2022/12/30 11:25:59;;;;;;;7.17;2.10;;;;;;;;;;4946863;28;20234;-62
2022/12/30 11:28:40;;;;;;;8.73;1.60;;;;;;;;;;4932291;28;20585;-63
2022/12/30 11:31:13;;;;;;;9.27;2.07;;;;;;;;;;4945149;28;20190;-62
2022/12/30 11:33:58;;;;;;;11.23;2.20;;;;;;;;;;4936224;28;20537;-60
2022/12/30 11:36:30;;;;;;;4.27;1.43;;;;;;;;;;4947603;28;20522;-62
2022/12/30 11:39:17;;;;;;;5.17;1.53;;;;;;;;;;4934113;28;20581;-63
2022/12/30 11:41:45;;;;;;;5.97;1.93;;;;;;;;;;4942938;28;20214;-62
2022/12/30 11:44:18;;;;;;;6.87;2.30;;;;;;;;;;4951104;28;20781;-62
2022/12/30 11:46:46;;;;;;;9.10;1.90;;;;;;;;;;4943786;28;20206;-63
2022/12/30 11:49:32;;;;;;;6.33;2.10;;;;;;;;;;4931124;29;20778;-63
2022/12/30 11:51:59;;;;;;;4.57;1.20;;;;;;;;;;4962487;28;20296;-62
2022/12/30 11:54:27;;;;;;;7.27;1.97;;;;;;;;;;4953064;28;20204;-61
2022/12/30 11:57:17;;;;;;;10.40;2.30;;;;;;;;;;4934872;28;20288;-62
2022/12/30 11:59:54;;;;;;;13.23;2.23;;;;;;;;;;4949187;28;20230;-63
2022/12/30 12:02:25;;;;;;;8.27;2.00;;;;;;;;;;4952365;28;20229;-62
2022/12/30 12:04:52;;;;;;;5.27;1.70;;;;;;;;;;4951596;28;20685;-62
2022/12/30 12:07:25;;;;;;;10.30;2.53;;;;;;;;;;4938686;29;20288;-61
2022/12/30 12:09:53;;;;;;;8.57;2.33;;;;;;;;;;4956742;28;20194;-61
2022/12/30 12:12:20;;;;;;;6.73;2.20;;;;;;;;;;4966291;28;20201;-61
2022/12/30 12:14:49;;;;;;;7.30;2.13;;;;;;;;;;4945734;28;20224;-61
2022/12/30 12:17:24;;;;;;;6.50;2.00;;;;;;;;;;4951834;28;20567;-62
2022/12/30 12:19:53;;;;;;;5.93;1.70;;;;;;;;;;4933289;28;20213;-61
2022/12/30 12:22:21;;;;;;;9.40;1.90;;;;;;;;;;4948884;28;20268;-61
2022/12/30 12:24:48;;;;;;;10.93;2.57;;;;;;;;;;4936112;28;20221;-62
2022/12/30 12:27:17;;;;;;;5.13;1.10;;;;;;;;;;4953893;28;20765;-63
2022/12/30 12:29:44;;;;;;;4.47;1.60;;;;;;;;;;4918490;29;20589;-61
2022/12/30 12:32:29;;;;;;;8.10;2.03;;;;;;;;;;4951328;28;20553;-60
2022/12/30 12:35:28;;;;;;;10.10;2.43;;;;;;;;;;4950327;28;20653;-60
2022/12/30 12:38:03;;;;;;;9.90;1.73;;;;;;;;;;4951780;28;20202;-61
2022/12/30 12:40:46;;;;;;;6.23;1.53;;;;;;;;;;4950927;28;20286;-61
2022/12/30 12:43:12;;;;;;;6.30;1.97;;;;;;;;;;4951907;28;20198;-61
2022/12/30 12:45:40;;;;;;;9.70;1.93;;;;;;;;;;4951430;28;20182;-61
2022/12/30 12:48:16;;;;;;;5.30;1.70;;;;;;;;;;4951998;29;20196;-62
2022/12/30 12:51:36;;;;;;;5.73;1.80;;;;;;;;;;4923245;29;20795;-61
2022/12/30 12:54:17;;;;;;;8.13;1.93;;;;;;;;;;4880126;29;20960;-61
2022/12/30 12:57:24;;;;;;;12.27;2.40;;;;;;;;;;4937138;29;20204;-60
2022/12/30 12:59:50;;;;;;;12.67;1.90;;;;;;;;;;4930184;28;20736;-61
2022/12/30 13:02:25;;;;;;;5.50;2.10;;;;;;;;;;4949838;28;20201;-62
2022/12/30 13:05:31;;;;;;;9.90;2.50;;;;;;;;;;4935804;29;20257;-62
2022/12/30 13:08:34;;;;;;;12.23;3.23;;;;;;;;;;4950930;28;20182;-61
2022/12/30 13:11:19;;;;;;;8.13;2.07;;;;;;;;;;4950927;28;20201;-61
2022/12/30 13:14:02;;;;;;;7.23;2.50;;;;;;;;;;4950185;28;20202;-61
2022/12/30 13:16:36;;;;;;;6.10;2.20;;;;;;;;;;4949977;28;20190;-61
2022/12/30 13:19:03;;;;;;;6.80;2.20;;;;;;;;;;4941401;28;20245;-60
2022/12/30 13:21:30;;;;;;;10.20;2.80;;;;;;;;;;4935321;29;20194;-61
2022/12/30 13:23:58;;;;;;;8.10;2.70;;;;;;;;;;4930866;28;20204;-61
2022/12/30 13:26:25;;;;;;;9.63;2.57;;;;;;;;;;4935804;28;20248;-60
2022/12/30 13:28:52;;;;;;;7.67;2.60;;;;;;;;;;4938742;28;20244;-62
2022/12/30 13:31:23;;;;;;;8.20;2.97;;;;;;;;;;4947977;28;20198;-62
2022/12/30 13:33:57;;;;;;;8.60;3.07;;;;;;;;;;4933461;29;20194;-61
2022/12/30 13:36:33;;;;;;;9.90;3.33;;;;;;;;;;4947108;28;20198;-60
2022/12/30 13:39:18;;;;;;;9.80;2.80;;;;;;;;;;4951098;29;20222;-60
2022/12/30 13:41:53;;;;;;;10.03;3.33;;;;;;;;;;4949815;28;20186;-60
2022/12/30 13:44:39;;;;;;;10.70;2.93;;;;;;;;;;4934710;28;20175;-60
2022/12/30 13:47:06;;;;;;;9.77;2.83;;;;;;;;;;4933022;29;20285;-60
2022/12/30 13:49:34;;;;;;;8.73;2.27;;;;;;;;;;4941505;29;20202;-60
2022/12/30 13:52:05;;;;;;;10.63;2.80;;;;;;;;;;4932935;29;20221;-60
2022/12/30 13:54:32;;;;;;;7.23;2.60;;;;;;;;;;4932986;28;20190;-60
2022/12/30 13:57:00;;;;;;;9.47;2.07;;;;;;;;;;4948467;28;20221;-61
2022/12/30 13:59:29;;;;;;;10.30;2.87;;;;;;;;;;4965792;28;20727;-60
2022/12/30 14:02:15;;;;;;;8.30;2.40;;;;;;;;;;4952576;29;20198;-60
2022/12/30 14:04:48;;;;;;;7.90;2.03;;;;;;;;;;4940647;28;20198;-60
2022/12/30 14:07:33;;;;;;;7.37;2.00;;;;;;;;;;4933504;29;20210;-60
2022/12/30 14:10:15;;;;;;;12.50;2.33;;;;;;;;;;4933292;29;20183;-60
2022/12/30 14:12:44;;;;;;;4.60;1.47;;;;;;;;;;4932983;29;20198;-60
2022/12/30 14:15:30;;;;;;;8.57;2.23;;;;;;;;;;4933672;29;20199;-60
2022/12/30 14:17:58;;;;;;;6.60;2.47;;;;;;;;;;4933938;29;20244;-60
2022/12/30 14:20:25;;;;;;;6.63;2.17;;;;;;;;;;4938924;29;20209;-60
2022/12/30 14:22:56;;;;;;;13.90;3.97;;;;;;;;;;4943123;28;20190;-60
2022/12/30 14:25:27;;;;;;;13.43;3.37;;;;;;;;;;4950897;28;20316;-63
2022/12/30 14:28:13;;;;;;;8.47;2.80;;;;;;;;;;4950603;28;20194;-59
2022/12/30 14:30:47;;;;;;;13.03;3.60;;;;;;;;;;4942582;29;20186;-60
2022/12/30 14:33:14;;;;;;;10.57;3.47;;;;;;;;;;4946160;29;20194;-60
2022/12/30 14:35:59;;;;;;;15.17;4.03;;;;;;;;;;4951758;28;20212;-60
2022/12/30 14:38:26;;;;;;;13.33;3.60;;;;;;;;;;4943626;29;20190;-63
2022/12/30 14:40:59;;;;;;;10.00;3.10;;;;;;;;;;4952287;28;20550;-60
2022/12/30 14:43:27;;;;;;;13.13;2.80;;;;;;;;;;4947137;28;20665;-60
2022/12/30 14:46:12;;;;;;;7.30;3.00;;;;;;;;;;4950157;29;20242;-60
2022/12/30 14:48:59;;;;;;;11.40;3.03;;;;;;;;;;4941491;28;20194;-60
2022/12/30 14:51:26;;;;;;;14.10;3.93;;;;;;;;;;4935310;28;20198;-60
2022/12/30 14:53:52;;;;;;;11.67;4.37;;;;;;;;;;4951237;29;20202;-60
2022/12/30 14:56:19;;;;;;;13.03;4.73;;;;;;;;;;4926274;29;20241;-60
2022/12/30 14:58:47;;;;;;;15.93;6.27;;;;;;;;;;4950287;29;20579;-61
2022/12/30 15:01:17;;;;;;;20.00;7.27;;;;;;;;;;4951666;28;20198;-60
2022/12/30 15:03:44;;;;;;;17.90;5.97;;;;;;;;;;4935401;29;20198;-60
2022/12/30 15:06:10;;;;;;;19.00;8.77;;;;;;;;;;4946684;28;20281;-61
2022/12/30 15:08:39;;;;;;;19.20;8.00;;;;;;;;;;4926400;28;20655;-60
2022/12/30 15:11:08;;;;;;;16.23;6.37;;;;;;;;;;4943392;28;20266;-60
2022/12/30 15:13:45;;;;;;;13.30;5.80;;;;;;;;;;4942412;28;20206;-60
2022/12/30 15:16:17;;;;;;;17.67;7.20;;;;;;;;;;4944021;28;20222;-60
2022/12/30 15:18:51;;;;;;;16.87;7.23;;;;;;;;;;4942980;28;20214;-60
2022/12/30 15:21:19;;;;;;;17.23;7.97;;;;;;;;;;4944199;28;20596;-61
2022/12/30 15:23:58;;;;;;;16.83;7.03;;;;;;;;;;4945203;28;20211;-64
2022/12/30 15:26:36;;;;;;;20.90;7.87;;;;;;;;;;4942645;28;20249;-60
2022/12/30 15:29:07;;;;;;;24.93;6.40;;;;;;;;;;4943390;28;20662;-60
2022/12/30 15:31:56;;;;;;;20.37;9.00;;;;;;;;;;4950544;28;20260;-60
2022/12/30 15:34:27;;;;;;;17.93;6.73;;;;;;;;;;4946167;28;20190;-60
2022/12/30 15:36:54;;;;;;;19.80;5.97;;;;;;;;;;4946280;28;20253;-60
2022/12/30 15:39:22;;;;;;;16.87;4.70;;;;;;;;;;4945308;28;20210;-62
2022/12/30 15:41:51;;;;;;;14.73;5.50;;;;;;;;;;4937854;29;20456;-60
2022/12/30 15:44:18;;;;;;;13.13;4.80;;;;;;;;;;4936421;28;20274;-60
2022/12/30 15:46:52;;;;;;;12.37;5.67;;;;;;;;;;4955281;28;20545;-60
2022/12/30 15:49:20;;;;;;;15.63;5.43;;;;;;;;;;4955600;29;20183;-61
2022/12/30 15:51:48;;;;;;;13.27;5.43;;;;;;;;;;4954183;28;20197;-60
2022/12/30 15:54:20;;;;;;;19.77;8.13;;;;;;;;;;4949959;28;20190;-60
2022/12/30 15:57:11;;;;;;;19.57;9.40;;;;;;;;;;4939371;28;20765;-60
2022/12/30 15:59:46;;;;;;;26.47;10.23;;;;;;;;;;4937888;29;20217;-60
2022/12/30 16:02:15;;;;;;;27.53;10.73;;;;;;;;;;4938126;28;20194;-63
2022/12/30 16:04:42;;;;;;;29.90;11.73;;;;;;;;;;4954919;28;20286;-60
2022/12/30 16:07:26;;;;;;;23.80;8.40;;;;;;;;;;4954697;28;20437;-61
2022/12/30 16:10:04;;;;;;;20.63;9.60;;;;;;;;;;4916932;29;20229;-61
2022/12/30 16:12:44;;;;;;;23.23;9.43;;;;;;;;;;4952536;28;20198;-60
2022/12/30 16:15:11;;;;;;;23.60;8.50;;;;;;;;;;4950621;29;20493;-59
2022/12/30 16:17:47;;;;;;;18.57;7.63;;;;;;;;;;4952910;28;20956;-60
2022/12/30 16:20:23;;;;;;;18.63;7.47;;;;;;;;;;4949702;28;20513;-60
2022/12/30 16:22:50;;;;;;;16.87;6.53;;;;;;;;;;4952966;28;20201;-61
2022/12/30 16:25:22;;;;;;;14.70;5.80;;;;;;;;;;4947990;28;20484;-60
2022/12/30 16:27:49;;;;;;;18.17;6.03;;;;;;;;;;4918068;29;20298;-60
2022/12/30 16:30:16;;;;;;;13.33;5.97;;;;;;;;;;4916218;29;20812;-60